createdAt,value
2022-08-28T00:02:25.892Z,14.48
2022-08-28T00:04:52.591Z,14.48
2022-08-28T00:07:19.373Z,14.48
2022-08-28T00:09:46.087Z,14.46
2022-08-28T00:12:12.616Z,14.45
2022-08-28T00:14:39.272Z,14.42
2022-08-28T00:17:06.084Z,14.40
2022-08-28T00:19:36.661Z,14.39
2022-08-28T00:22:06.240Z,14.38
2022-08-28T00:24:33.283Z,14.38
2022-08-28T00:27:18.558Z,14.37
2022-08-28T00:29:45.252Z,14.30
2022-08-28T00:32:11.920Z,14.28
2022-08-28T00:34:39.062Z,14.28
2022-08-28T00:37:05.934Z,14.26
2022-08-28T00:39:32.609Z,14.23
2022-08-28T00:41:59.146Z,14.21
2022-08-28T00:44:27.755Z,14.21
2022-08-28T00:46:56.526Z,14.19
2022-08-28T00:49:27.754Z,14.15
2022-08-28T00:52:08.034Z,14.12
2022-08-28T00:55:03.182Z,14.09
2022-08-28T00:57:34.863Z,14.07
2022-08-28T01:00:01.650Z,14.04
2022-08-28T01:02:28.490Z,14.03
2022-08-28T01:04:55.547Z,14.01
2022-08-28T01:07:23.270Z,13.98
2022-08-28T01:09:54.042Z,13.97
2022-08-28T01:12:28.947Z,13.97
2022-08-28T01:15:00.063Z,13.93
2022-08-28T01:17:30.985Z,13.89
2022-08-28T01:20:00.925Z,13.85
2022-08-28T01:22:38.154Z,13.83
2022-08-28T01:25:10.418Z,13.81
2022-08-28T01:27:36.983Z,13.80
2022-08-28T01:30:04.700Z,13.78
2022-08-28T01:32:43.757Z,13.75
2022-08-28T01:35:16.043Z,13.75
2022-08-28T01:37:42.937Z,13.72
2022-08-28T01:40:12.518Z,13.70
2022-08-28T01:42:41.400Z,13.67
2022-08-28T01:45:11.430Z,13.66
2022-08-28T01:47:39.500Z,13.65
2022-08-28T01:50:07.749Z,13.63
2022-08-28T01:52:34.251Z,13.64
2022-08-28T01:55:01.231Z,13.63
2022-08-28T01:57:31.732Z,13.62
2022-08-28T01:59:58.226Z,13.62
2022-08-28T02:02:24.635Z,13.59
2022-08-28T02:04:51.191Z,13.57
2022-08-28T02:07:17.912Z,13.53
2022-08-28T02:09:44.498Z,13.47
2022-08-28T02:12:11.128Z,13.47
2022-08-28T02:14:38.657Z,13.47
2022-08-28T02:17:05.195Z,13.48
2022-08-28T02:19:32.152Z,13.49
2022-08-28T02:21:58.783Z,13.44
2022-08-28T02:24:25.249Z,13.42
2022-08-28T02:26:51.735Z,13.40
2022-08-28T02:29:18.645Z,13.37
2022-08-28T02:31:45.096Z,13.32
2022-08-28T02:34:11.557Z,13.28
2022-08-28T02:36:41.659Z,13.24
2022-08-28T02:39:08.390Z,13.18
2022-08-28T02:41:34.925Z,13.14
2022-08-28T02:44:01.524Z,13.11
2022-08-28T02:46:28.184Z,13.07
2022-08-28T02:48:56.194Z,13.02
2022-08-28T02:51:23.139Z,13.00
2022-08-28T02:53:50.449Z,13.00
2022-08-28T02:56:16.997Z,12.96
2022-08-28T02:58:44.467Z,12.93
2022-08-28T03:01:13.432Z,12.90
2022-08-28T03:03:41.000Z,12.87
2022-08-28T03:06:11.379Z,12.82
2022-08-28T03:08:39.090Z,12.79
2022-08-28T03:11:05.560Z,12.74
2022-08-28T03:13:31.999Z,12.70
2022-08-28T03:15:58.614Z,12.66
2022-08-28T03:18:27.567Z,12.62
2022-08-28T03:20:55.497Z,12.59
2022-08-28T03:23:28.694Z,12.58
2022-08-28T03:26:01.478Z,12.55
2022-08-28T03:28:30.978Z,12.50
2022-08-28T03:30:57.892Z,12.46
2022-08-28T03:33:25.255Z,12.44
2022-08-28T03:35:51.684Z,12.43
2022-08-28T03:38:18.926Z,12.41
2022-08-28T03:40:46.945Z,12.39
2022-08-28T03:43:16.545Z,12.37
2022-08-28T03:45:53.927Z,12.35
2022-08-28T03:48:21.010Z,12.32
2022-08-28T03:50:47.708Z,12.27
2022-08-28T03:53:15.834Z,12.24
2022-08-28T03:55:43.165Z,12.25
2022-08-28T03:58:09.743Z,12.22
2022-08-28T04:00:46.992Z,12.19
2022-08-28T04:03:13.788Z,12.14
2022-08-28T04:05:45.061Z,12.07
2022-08-28T04:08:16.985Z,12.06
2022-08-28T04:10:44.571Z,12.02
2022-08-28T04:13:12.563Z,12.00
2022-08-28T04:15:39.884Z,12.00
2022-08-28T04:18:06.395Z,11.96
2022-08-28T04:20:33.329Z,11.94
2022-08-28T04:23:01.232Z,11.96
2022-08-28T04:25:27.676Z,11.96
2022-08-28T04:27:54.090Z,11.97
2022-08-28T04:30:20.823Z,11.94
2022-08-28T04:32:47.548Z,11.95
2022-08-28T04:35:14.871Z,11.93
2022-08-28T04:37:43.668Z,11.91
2022-08-28T04:40:12.935Z,11.91
2022-08-28T04:42:40.102Z,11.93
2022-08-28T04:45:07.325Z,11.95
2022-08-28T04:47:38.453Z,11.97
2022-08-28T04:50:06.613Z,11.97
2022-08-28T04:52:33.140Z,11.98
2022-08-28T04:54:59.648Z,12.00
2022-08-28T04:57:26.231Z,12.01
2022-08-28T04:59:52.726Z,12.04
2022-08-28T05:02:19.297Z,12.08
2022-08-28T05:04:45.880Z,12.13
2022-08-28T05:07:12.374Z,12.17
2022-08-28T05:09:38.907Z,12.21
2022-08-28T05:12:06.110Z,12.23
2022-08-28T05:14:32.717Z,12.33
2022-08-28T05:16:59.272Z,12.36
2022-08-28T05:19:27.946Z,12.41
2022-08-28T05:21:54.992Z,12.47
2022-08-28T05:24:22.402Z,12.53
2022-08-28T05:26:49.264Z,12.57
2022-08-28T05:29:16.827Z,12.63
2022-08-28T05:31:43.994Z,12.71
2022-08-28T05:34:10.821Z,12.80
2022-08-28T05:36:38.749Z,13.15
2022-08-28T05:39:08.331Z,14.60
2022-08-28T05:41:36.087Z,16.03
2022-08-28T05:44:08.317Z,16.94
2022-08-28T05:46:37.461Z,17.75
2022-08-28T05:49:09.085Z,17.93
2022-08-28T05:51:36.631Z,18.13
2022-08-28T05:54:03.781Z,18.41
2022-08-28T05:56:33.998Z,18.79
2022-08-28T05:59:01.965Z,19.00
2022-08-28T06:01:34.320Z,18.78
2022-08-28T06:04:05.604Z,18.59
2022-08-28T06:06:34.402Z,18.98
2022-08-28T06:09:05.923Z,19.22
2022-08-28T06:11:32.898Z,19.38
2022-08-28T06:14:01.776Z,19.52
2022-08-28T06:16:31.681Z,19.48
2022-08-28T06:18:59.015Z,19.43
2022-08-28T06:21:26.009Z,19.70
2022-08-28T06:23:53.475Z,20.04
2022-08-28T06:26:20.073Z,20.21
2022-08-28T06:28:46.536Z,20.09
2022-08-28T06:31:23.277Z,20.12
2022-08-28T06:33:50.568Z,20.28
2022-08-28T06:36:17.058Z,19.92
2022-08-28T06:38:46.552Z,20.01
2022-08-28T06:41:14.027Z,20.05
2022-08-28T06:43:40.440Z,19.48
2022-08-28T06:46:07.150Z,19.10
2022-08-28T06:48:33.939Z,18.29
2022-08-28T06:51:00.534Z,18.12
2022-08-28T06:53:30.904Z,17.96
2022-08-28T06:56:02.875Z,17.95
2022-08-28T06:58:30.279Z,17.61
2022-08-28T07:01:07.045Z,17.27
2022-08-28T07:03:33.802Z,17.13
2022-08-28T07:06:01.843Z,17.17
2022-08-28T07:08:29.960Z,17.25
2022-08-28T07:10:57.189Z,17.30
2022-08-28T07:13:24.002Z,17.27
2022-08-28T07:15:50.828Z,17.28
2022-08-28T07:18:18.081Z,17.28
2022-08-28T07:20:45.534Z,17.36
2022-08-28T07:23:12.058Z,17.51
2022-08-28T07:25:41.958Z,17.44
2022-08-28T07:28:09.179Z,17.36
2022-08-28T07:30:35.738Z,17.26
2022-08-28T07:33:02.339Z,17.33
2022-08-28T07:35:28.827Z,17.48
2022-08-28T07:37:55.250Z,17.47
2022-08-28T07:40:22.335Z,17.39
2022-08-28T07:43:07.719Z,17.42
2022-08-28T07:45:35.390Z,17.43
2022-08-28T07:48:11.281Z,17.41
2022-08-28T07:50:38.082Z,17.55
2022-08-28T07:53:04.564Z,17.51
2022-08-28T07:55:31.712Z,17.84
2022-08-28T07:57:58.107Z,17.92
2022-08-28T08:00:24.676Z,17.98
2022-08-28T08:02:51.101Z,17.95
2022-08-28T08:05:17.741Z,17.97
2022-08-28T08:07:46.014Z,17.86
2022-08-28T08:10:19.909Z,17.85
2022-08-28T08:12:47.110Z,18.00
2022-08-28T08:15:13.596Z,18.38
2022-08-28T08:17:40.411Z,18.23
2022-08-28T08:20:07.616Z,18.45
2022-08-28T08:22:35.309Z,18.70
2022-08-28T08:25:05.555Z,18.34
2022-08-28T08:27:33.135Z,18.38
2022-08-28T08:30:00.434Z,18.44
2022-08-28T08:32:27.264Z,18.49
2022-08-28T08:34:58.364Z,18.58
2022-08-28T08:37:24.875Z,18.72
2022-08-28T08:39:53.306Z,18.70
2022-08-28T08:42:33.918Z,18.47
2022-08-28T08:45:04.153Z,18.50
2022-08-28T08:47:43.420Z,18.40
2022-08-28T08:50:18.490Z,18.45
2022-08-28T08:52:55.505Z,18.79
2022-08-28T08:55:31.981Z,18.95
2022-08-28T08:58:09.314Z,19.11
2022-08-28T09:01:09.979Z,19.39
2022-08-28T09:03:53.974Z,19.56
2022-08-28T09:06:50.076Z,19.37
2022-08-28T09:09:37.251Z,19.49
2022-08-28T09:12:11.285Z,19.39
2022-08-28T09:14:43.504Z,19.37
2022-08-28T09:17:12.227Z,19.45
2022-08-28T09:19:39.199Z,19.67
2022-08-28T09:22:05.700Z,19.68
2022-08-28T09:24:36.425Z,19.88
2022-08-28T09:27:22.601Z,19.90
2022-08-28T09:30:08.566Z,19.74
2022-08-28T09:32:39.048Z,19.71
2022-08-28T09:35:27.862Z,19.60
2022-08-28T09:37:56.184Z,19.58
2022-08-28T09:40:26.269Z,19.78
2022-08-28T09:43:23.159Z,19.72
2022-08-28T09:46:16.535Z,19.90
2022-08-28T09:48:46.360Z,20.28
2022-08-28T09:51:28.480Z,19.91
2022-08-28T09:53:54.883Z,19.86
2022-08-28T09:56:28.498Z,19.81
2022-08-28T09:58:59.738Z,19.69
2022-08-28T10:01:44.840Z,19.53
2022-08-28T10:04:19.437Z,19.46
2022-08-28T10:06:51.627Z,19.34
2022-08-28T10:09:31.629Z,19.14
2022-08-28T10:12:27.132Z,18.98
2022-08-28T10:15:33.464Z,18.87
2022-08-28T10:18:28.919Z,19.19
2022-08-28T10:21:03.959Z,19.86
2022-08-28T10:23:42.952Z,20.34
2022-08-28T10:26:36.714Z,20.33
2022-08-28T10:29:34.158Z,20.35
2022-08-28T10:32:14.407Z,20.67
2022-08-28T10:34:52.598Z,20.91
2022-08-28T10:37:48.694Z,20.52
2022-08-28T10:40:25.554Z,20.27
2022-08-28T10:43:03.926Z,20.21
2022-08-28T10:45:34.257Z,20.10
2022-08-28T10:48:44.443Z,20.21
2022-08-28T10:51:20.325Z,20.51
2022-08-28T10:54:06.971Z,20.77
2022-08-28T10:56:43.057Z,20.42
2022-08-28T10:59:09.595Z,20.53
2022-08-28T11:01:40.700Z,20.82
2022-08-28T11:04:24.951Z,21.02
2022-08-28T11:06:58.341Z,21.26
2022-08-28T11:09:40.247Z,21.31
2022-08-28T11:12:28.113Z,20.90
2022-08-28T11:14:55.292Z,20.56
2022-08-28T11:17:21.715Z,20.99
2022-08-28T11:20:09.699Z,21.46
2022-08-28T11:22:59.863Z,21.60
2022-08-28T11:25:34.159Z,21.85
2022-08-28T11:28:17.692Z,21.40
2022-08-28T11:30:47.781Z,20.86
2022-08-28T11:33:37.964Z,20.76
2022-08-28T11:36:29.891Z,21.01
2022-08-28T11:38:57.001Z,21.12
2022-08-28T11:41:32.793Z,21.34
2022-08-28T11:44:11.160Z,21.81
2022-08-28T11:46:42.834Z,22.03
2022-08-28T11:49:27.439Z,21.74
2022-08-28T11:52:15.415Z,21.33
2022-08-28T11:55:05.653Z,20.90
2022-08-28T12:01:01.522Z,21.38
2022-08-28T12:03:36.998Z,22.03
2022-08-28T12:06:05.311Z,21.70
2022-08-28T12:08:52.968Z,21.16
2022-08-28T12:11:41.624Z,20.91
2022-08-28T12:14:32.875Z,20.87
2022-08-28T12:16:59.277Z,21.43
2022-08-28T12:19:55.333Z,21.64
2022-08-28T12:22:26.506Z,21.41
2022-08-28T12:24:57.836Z,21.57
2022-08-28T12:27:24.928Z,22.02
2022-08-28T12:29:55.773Z,22.14
2022-08-28T12:32:45.676Z,22.33
2022-08-28T12:35:21.809Z,22.35
2022-08-28T12:37:54.271Z,21.82
2022-08-28T12:40:25.707Z,21.38
2022-08-28T12:43:06.634Z,21.21
2022-08-28T12:45:45.412Z,21.48
2022-08-28T12:48:20.900Z,21.68
2022-08-28T12:50:47.854Z,21.63
2022-08-28T12:53:17.829Z,21.77
2022-08-28T12:55:46.554Z,21.78
2022-08-28T12:58:26.955Z,21.93
2022-08-28T13:00:57.997Z,22.04
2022-08-28T13:03:24.873Z,21.72
2022-08-28T13:06:03.984Z,21.53
2022-08-28T13:08:31.776Z,21.79
2022-08-28T13:10:58.922Z,21.51
2022-08-28T13:13:47.091Z,21.81
2022-08-28T13:16:35.193Z,22.16
2022-08-28T13:19:04.428Z,22.35
2022-08-28T13:21:35.298Z,22.45
2022-08-28T13:24:22.012Z,22.59
2022-08-28T13:26:59.294Z,22.93
2022-08-28T13:29:26.312Z,23.04
2022-08-28T13:31:59.801Z,22.96
2022-08-28T13:34:31.671Z,22.72
2022-08-28T13:37:01.701Z,22.18
2022-08-28T13:39:32.978Z,21.77
2022-08-28T13:42:08.672Z,21.63
2022-08-28T13:44:40.610Z,21.73
2022-08-28T13:47:07.205Z,22.19
2022-08-28T13:49:34.919Z,22.26
2022-08-28T13:52:04.912Z,22.13
2022-08-28T13:54:31.524Z,21.90
2022-08-28T13:56:58.843Z,21.71
2022-08-28T13:59:25.667Z,21.70
2022-08-28T14:02:14.907Z,21.87
2022-08-28T14:04:41.536Z,21.85
2022-08-28T14:07:08.052Z,21.94
2022-08-28T14:09:35.866Z,21.84
2022-08-28T14:12:04.094Z,21.68
2022-08-28T14:14:32.049Z,21.62
2022-08-28T14:16:59.197Z,21.88
2022-08-28T14:19:25.711Z,21.82
2022-08-28T14:21:52.768Z,22.05
2022-08-28T14:24:19.631Z,21.95
2022-08-28T14:26:46.402Z,21.58
2022-08-28T14:29:15.656Z,21.39
2022-08-28T14:31:43.922Z,21.48
2022-08-28T14:34:13.141Z,21.62
2022-08-28T14:36:39.977Z,21.60
2022-08-28T14:39:08.879Z,21.60
2022-08-28T14:41:36.188Z,21.87
2022-08-28T14:44:04.137Z,22.12
2022-08-28T14:46:33.426Z,22.23
2022-08-28T14:49:06.253Z,22.71
2022-08-28T14:51:34.654Z,22.78
2022-08-28T14:54:02.463Z,22.85
2022-08-28T14:56:31.601Z,22.51
2022-08-28T14:59:00.126Z,22.03
2022-08-28T15:01:39.689Z,21.77
2022-08-28T15:04:11.571Z,21.49
2022-08-28T15:06:38.820Z,21.51
2022-08-28T15:09:05.623Z,21.44
2022-08-28T15:11:32.227Z,21.39
2022-08-28T15:13:58.671Z,21.29
2022-08-28T15:16:30.176Z,21.27
2022-08-28T15:18:59.078Z,21.24
2022-08-28T15:21:35.314Z,21.08
2022-08-28T15:24:03.621Z,21.03
2022-08-28T15:26:31.421Z,21.20
2022-08-28T15:29:02.234Z,21.41
2022-08-28T15:31:37.767Z,21.55
2022-08-28T15:34:06.693Z,21.62
2022-08-28T15:36:41.055Z,21.56
2022-08-28T15:39:27.227Z,21.57
2022-08-28T15:41:54.151Z,21.48
2022-08-28T15:44:20.685Z,21.54
2022-08-28T15:46:54.173Z,21.32
2022-08-28T15:49:21.057Z,21.18
2022-08-28T15:51:51.097Z,21.08
2022-08-28T15:54:17.736Z,21.20
2022-08-28T15:56:45.181Z,21.24
2022-08-28T15:59:13.750Z,21.19
2022-08-28T16:01:40.527Z,21.08
2022-08-28T16:04:07.668Z,20.98
2022-08-28T16:06:35.488Z,20.79
2022-08-28T16:09:09.263Z,20.65
2022-08-28T16:11:38.665Z,20.71
2022-08-28T16:14:05.240Z,20.72
2022-08-28T16:16:34.756Z,20.73
2022-08-28T16:19:01.680Z,20.75
2022-08-28T16:21:28.647Z,20.74
2022-08-28T16:23:55.319Z,20.80
2022-08-28T16:26:31.069Z,20.75
2022-08-28T16:29:00.177Z,20.71
2022-08-28T16:31:27.208Z,20.61
2022-08-28T16:33:53.861Z,20.62
2022-08-28T16:36:23.849Z,20.58
2022-08-28T16:39:14.732Z,20.61
2022-08-28T16:41:53.707Z,20.63
2022-08-28T16:47:49.151Z,20.61
2022-08-28T16:50:16.520Z,20.46
2022-08-28T16:52:53.887Z,20.44
2022-08-28T16:55:20.942Z,20.38
2022-08-28T16:57:56.524Z,20.37
2022-08-28T17:00:52.449Z,20.34
2022-08-28T17:03:26.161Z,20.33
2022-08-28T17:05:55.285Z,20.28
2022-08-28T17:08:23.725Z,20.24
2022-08-28T17:11:31.307Z,20.23
2022-08-28T17:16:40.282Z,20.16
2022-08-28T17:19:09.237Z,20.11
2022-08-28T17:21:54.449Z,20.06
2022-08-28T17:24:20.971Z,20.00
2022-08-28T17:26:51.623Z,19.94
2022-08-28T17:29:20.761Z,19.87
2022-08-28T17:31:47.446Z,19.78
2022-08-28T17:34:16.651Z,19.77
2022-08-28T17:36:47.328Z,19.71
2022-08-28T17:39:16.187Z,19.65
2022-08-28T17:41:46.129Z,19.61
2022-08-28T17:44:14.291Z,19.57
2022-08-28T17:46:43.002Z,19.50
2022-08-28T17:49:10.103Z,19.47
2022-08-28T17:51:43.372Z,19.44
2022-08-28T17:54:18.016Z,19.38
2022-08-28T17:56:57.655Z,19.36
2022-08-28T17:59:29.923Z,19.29
2022-08-28T18:01:59.284Z,19.24
2022-08-28T18:04:26.044Z,19.17
2022-08-28T18:06:54.705Z,19.14
2022-08-28T18:09:25.271Z,19.08
2022-08-28T18:11:55.660Z,19.05
2022-08-28T18:14:22.228Z,19.03
2022-08-28T18:16:52.013Z,18.97
2022-08-28T18:19:19.061Z,18.92
2022-08-28T18:21:45.904Z,18.87
2022-08-28T18:24:13.262Z,18.80
2022-08-28T18:26:50.328Z,18.74
2022-08-28T18:29:20.267Z,18.71
2022-08-28T18:31:46.761Z,18.67
2022-08-28T18:34:32.815Z,18.63
2022-08-28T18:36:59.844Z,18.58
2022-08-28T18:39:36.467Z,18.54
2022-08-28T18:42:05.635Z,18.48
2022-08-28T18:44:32.849Z,18.45
2022-08-28T18:47:01.767Z,18.40
2022-08-28T18:49:39.012Z,18.34
2022-08-28T18:52:18.999Z,18.30
2022-08-28T19:00:27.867Z,18.15
2022-08-28T19:03:02.424Z,18.11
2022-08-28T19:14:03.893Z,17.94
2022-08-28T19:16:37.432Z,17.88
2022-08-28T19:19:08.966Z,17.81
2022-08-28T19:21:44.865Z,17.80
2022-08-28T19:24:54.052Z,17.76
2022-08-28T19:27:51.345Z,17.68
2022-08-28T19:37:12.602Z,17.55
2022-08-28T19:39:49.203Z,17.51
2022-08-28T19:46:20.607Z,17.44
2022-08-28T19:48:51.194Z,17.38
2022-08-28T19:51:22.782Z,17.35
2022-08-28T19:57:11.048Z,17.29
2022-08-28T20:00:52.257Z,17.27
2022-08-28T20:04:08.829Z,17.24
2022-08-28T20:06:37.379Z,17.18
2022-08-28T20:09:13.296Z,17.14
2022-08-28T20:12:09.870Z,17.12
2022-08-28T20:14:38.888Z,17.08
2022-08-28T20:17:07.654Z,17.07
2022-08-28T20:20:03.037Z,17.07
2022-08-28T20:22:40.310Z,17.03
2022-08-28T20:27:52.150Z,16.94
2022-08-28T20:30:24.133Z,16.92
2022-08-28T20:32:52.484Z,16.90
2022-08-28T20:35:44.825Z,16.85
2022-08-28T20:38:14.027Z,16.82
2022-08-28T20:40:44.717Z,16.76
2022-08-28T20:43:15.470Z,16.73
2022-08-28T20:45:46.264Z,16.71
2022-08-28T20:48:44.234Z,16.67
2022-08-28T20:51:21.458Z,16.63
2022-08-28T20:56:37.138Z,16.60
2022-08-28T20:59:12.731Z,16.55
2022-08-28T21:01:49.404Z,16.53
2022-08-28T21:08:00.113Z,16.46
2022-08-28T21:13:18.087Z,16.38
2022-08-28T21:14:51.555Z,16.34
2022-08-28T21:17:30.669Z,16.33
2022-08-28T21:23:02.409Z,16.25
2022-08-28T21:25:41.641Z,16.22
2022-08-28T21:28:32.445Z,16.18
2022-08-28T21:31:00.449Z,16.12
2022-08-28T22:39:09.590Z,15.60
2022-08-28T22:41:37.374Z,15.54
2022-08-28T22:44:04.384Z,15.51
2022-08-28T22:46:31.045Z,15.48
2022-08-28T22:48:57.611Z,15.46
2022-08-28T22:51:24.087Z,15.40
2022-08-28T22:53:50.770Z,15.32
2022-08-28T22:56:17.858Z,15.24
2022-08-28T22:58:44.709Z,15.16
2022-08-28T23:01:16.026Z,15.09
2022-08-28T23:03:42.936Z,15.05
2022-08-28T23:06:09.583Z,15.00
2022-08-28T23:08:36.366Z,14.98
2022-08-28T23:11:02.967Z,14.93
2022-08-28T23:13:30.118Z,14.88
2022-08-28T23:15:57.035Z,14.87
2022-08-28T23:18:23.595Z,14.84
2022-08-28T23:20:50.499Z,14.82
2022-08-28T23:23:17.426Z,14.76
2022-08-28T23:25:43.964Z,14.74
2022-08-28T23:28:10.531Z,14.65
2022-08-28T23:30:38.969Z,14.51
2022-08-28T23:33:08.445Z,14.39
2022-08-28T23:35:35.679Z,14.32
2022-08-28T23:38:02.229Z,14.28
2022-08-28T23:40:30.381Z,14.22
2022-08-28T23:42:57.992Z,14.20
2022-08-28T23:45:26.023Z,14.18
2022-08-28T23:47:54.032Z,14.18
2022-08-28T23:50:23.474Z,14.15
2022-08-28T23:52:49.992Z,14.11
2022-08-28T23:55:19.034Z,14.06
2022-08-28T23:57:46.038Z,14.02
